sensor_id;sensor_type;location;lat;lon;timestamp;temperature;humidity
37285;DHT22;23172;53.550;9.964;2024-03-02T00:04:28;11.40;98.40
37285;DHT22;23172;53.550;9.964;2024-03-02T00:09:30;11.40;98.50
37285;DHT22;23172;53.550;9.964;2024-03-02T00:14:32;11.40;98.60
37285;DHT22;23172;53.550;9.964;2024-03-02T00:19:38;11.40;98.50
37285;DHT22;23172;53.550;9.964;2024-03-02T00:24:41;11.40;98.70
37285;DHT22;23172;53.550;9.964;2024-03-02T00:29:43;11.30;99.00
37285;DHT22;23172;53.550;9.964;2024-03-02T00:34:46;11.30;98.70
37285;DHT22;23172;53.550;9.964;2024-03-02T00:39:49;11.40;98.80
37285;DHT22;23172;53.550;9.964;2024-03-02T00:44:51;11.40;98.90
37285;DHT22;23172;53.550;9.964;2024-03-02T00:49:54;11.30;99.00
37285;DHT22;23172;53.550;9.964;2024-03-02T00:54:57;11.30;99.00
37285;DHT22;23172;53.550;9.964;2024-03-02T00:59:59;11.30;99.20
37285;DHT22;23172;53.550;9.964;2024-03-02T01:05:02;11.30;99.70
37285;DHT22;23172;53.550;9.964;2024-03-02T01:10:06;11.30;99.60
37285;DHT22;23172;53.550;9.964;2024-03-02T01:15:08;11.20;99.70
37285;DHT22;23172;53.550;9.964;2024-03-02T01:20:12;11.20;99.90
37285;DHT22;23172;53.550;9.964;2024-03-02T01:25:14;11.20;99.90
37285;DHT22;23172;53.550;9.964;2024-03-02T01:30:16;11.10;99.90
37285;DHT22;23172;53.550;9.964;2024-03-02T01:35:19;11.10;99.90
37285;DHT22;23172;53.550;9.964;2024-03-02T01:40:21;11.00;99.90
37285;DHT22;23172;53.550;9.964;2024-03-02T01:45:26;10.90;99.90
37285;DHT22;23172;53.550;9.964;2024-03-02T01:50:31;10.90;99.90
37285;DHT22;23172;53.550;9.964;2024-03-02T01:55:34;10.80;99.90
37285;DHT22;23172;53.550;9.964;2024-03-02T02:00:35;10.80;99.90
37285;DHT22;23172;53.550;9.964;2024-03-02T02:05:39;10.80;99.90
37285;DHT22;23172;53.550;9.964;2024-03-02T02:10:41;10.80;99.90
37285;DHT22;23172;53.550;9.964;2024-03-02T02:15:42;10.70;99.90
37285;DHT22;23172;53.550;9.964;2024-03-02T02:20:46;10.60;99.90
37285;DHT22;23172;53.550;9.964;2024-03-02T02:25:49;10.60;99.90
37285;DHT22;23172;53.550;9.964;2024-03-02T02:30:51;10.50;99.90
37285;DHT22;23172;53.550;9.964;2024-03-02T02:35:52;10.50;99.90
37285;DHT22;23172;53.550;9.964;2024-03-02T02:40:56;10.40;99.90
37285;DHT22;23172;53.550;9.964;2024-03-02T02:45:58;10.50;99.90
37285;DHT22;23172;53.550;9.964;2024-03-02T02:51:00;10.50;99.90
37285;DHT22;23172;53.550;9.964;2024-03-02T02:56:04;10.50;99.90
37285;DHT22;23172;53.550;9.964;2024-03-02T03:01:06;10.50;99.90
37285;DHT22;23172;53.550;9.964;2024-03-02T03:06:08;10.50;99.90
37285;DHT22;23172;53.550;9.964;2024-03-02T03:11:11;10.50;99.90
37285;DHT22;23172;53.550;9.964;2024-03-02T03:16:13;10.50;99.90
37285;DHT22;23172;53.550;9.964;2024-03-02T03:21:15;10.50;99.90
37285;DHT22;23172;53.550;9.964;2024-03-02T03:26:18;10.50;99.90
37285;DHT22;23172;53.550;9.964;2024-03-02T03:31:20;10.50;99.90
37285;DHT22;23172;53.550;9.964;2024-03-02T03:36:22;10.60;99.90
37285;DHT22;23172;53.550;9.964;2024-03-02T03:41:25;10.50;99.90
37285;DHT22;23172;53.550;9.964;2024-03-02T03:46:27;10.50;99.90
37285;DHT22;23172;53.550;9.964;2024-03-02T03:51:29;10.50;99.90
37285;DHT22;23172;53.550;9.964;2024-03-02T03:56:32;10.50;99.90
37285;DHT22;23172;53.550;9.964;2024-03-02T04:01:34;10.50;99.90
37285;DHT22;23172;53.550;9.964;2024-03-02T04:06:36;10.50;99.90
37285;DHT22;23172;53.550;9.964;2024-03-02T04:11:39;10.50;99.90
37285;DHT22;23172;53.550;9.964;2024-03-02T04:16:41;10.40;99.90
37285;DHT22;23172;53.550;9.964;2024-03-02T04:21:43;10.30;99.90
37285;DHT22;23172;53.550;9.964;2024-03-02T04:26:46;10.30;99.90
37285;DHT22;23172;53.550;9.964;2024-03-02T04:31:48;10.20;99.90
37285;DHT22;23172;53.550;9.964;2024-03-02T04:36:50;10.20;99.90
37285;DHT22;23172;53.550;9.964;2024-03-02T04:41:53;10.20;99.90
37285;DHT22;23172;53.550;9.964;2024-03-02T04:46:55;10.20;99.90
37285;DHT22;23172;53.550;9.964;2024-03-02T04:51:57;10.20;99.90
37285;DHT22;23172;53.550;9.964;2024-03-02T04:57:00;10.20;99.90
37285;DHT22;23172;53.550;9.964;2024-03-02T05:02:02;10.10;99.90
37285;DHT22;23172;53.550;9.964;2024-03-02T05:07:04;10.10;99.90
37285;DHT22;23172;53.550;9.964;2024-03-02T05:12:07;10.10;99.90
37285;DHT22;23172;53.550;9.964;2024-03-02T05:17:29;10.00;99.90
37285;DHT22;23172;53.550;9.964;2024-03-02T05:22:31;10.10;99.90
37285;DHT22;23172;53.550;9.964;2024-03-02T05:27:35;10.10;99.90
37285;DHT22;23172;53.550;9.964;2024-03-02T05:32:37;10.10;99.90
37285;DHT22;23172;53.550;9.964;2024-03-02T05:37:39;10.10;99.90
37285;DHT22;23172;53.550;9.964;2024-03-02T05:42:42;10.10;99.90
37285;DHT22;23172;53.550;9.964;2024-03-02T05:47:44;10.00;99.90
37285;DHT22;23172;53.550;9.964;2024-03-02T05:52:46;10.00;99.90
37285;DHT22;23172;53.550;9.964;2024-03-02T05:57:49;10.00;99.90
37285;DHT22;23172;53.550;9.964;2024-03-02T06:03:04;10.00;99.90
37285;DHT22;23172;53.550;9.964;2024-03-02T06:08:06;10.10;99.90
37285;DHT22;23172;53.550;9.964;2024-03-02T06:13:10;10.00;99.90
37285;DHT22;23172;53.550;9.964;2024-03-02T06:18:12;10.00;99.90
37285;DHT22;23172;53.550;9.964;2024-03-02T06:23:13;10.00;99.90
37285;DHT22;23172;53.550;9.964;2024-03-02T06:28:17;10.00;99.90
37285;DHT22;23172;53.550;9.964;2024-03-02T06:33:18;10.00;99.90
37285;DHT22;23172;53.550;9.964;2024-03-02T06:38:20;9.90;99.90
37285;DHT22;23172;53.550;9.964;2024-03-02T06:43:24;9.90;99.90
37285;DHT22;23172;53.550;9.964;2024-03-02T06:48:26;9.90;99.90
37285;DHT22;23172;53.550;9.964;2024-03-02T06:53:29;9.90;99.90
37285;DHT22;23172;53.550;9.964;2024-03-02T06:58:33;9.90;99.90
37285;DHT22;23172;53.550;9.964;2024-03-02T07:03:35;10.00;99.90
37285;DHT22;23172;53.550;9.964;2024-03-02T07:08:37;10.00;99.90
37285;DHT22;23172;53.550;9.964;2024-03-02T07:13:40;10.10;99.90
37285;DHT22;23172;53.550;9.964;2024-03-02T07:18:42;10.10;99.90
37285;DHT22;23172;53.550;9.964;2024-03-02T07:23:51;10.20;99.90
37285;DHT22;23172;53.550;9.964;2024-03-02T07:28:54;10.30;99.90
37285;DHT22;23172;53.550;9.964;2024-03-02T07:33:56;10.30;99.90
37285;DHT22;23172;53.550;9.964;2024-03-02T07:38:58;10.40;99.90
37285;DHT22;23172;53.550;9.964;2024-03-02T07:44:01;10.40;99.90
37285;DHT22;23172;53.550;9.964;2024-03-02T07:49:03;10.50;99.90
37285;DHT22;23172;53.550;9.964;2024-03-02T07:54:05;10.40;99.90
37285;DHT22;23172;53.550;9.964;2024-03-02T07:59:09;10.40;99.90
37285;DHT22;23172;53.550;9.964;2024-03-02T08:04:11;10.40;99.90
37285;DHT22;23172;53.550;9.964;2024-03-02T08:09:13;10.50;99.90
37285;DHT22;23172;53.550;9.964;2024-03-02T08:14:16;10.50;99.90
37285;DHT22;23172;53.550;9.964;2024-03-02T08:19:18;10.60;99.90
37285;DHT22;23172;53.550;9.964;2024-03-02T08:24:19;10.70;99.90
37285;DHT22;23172;53.550;9.964;2024-03-02T08:29:23;10.70;99.90
37285;DHT22;23172;53.550;9.964;2024-03-02T08:34:25;10.70;99.90
37285;DHT22;23172;53.550;9.964;2024-03-02T08:39:26;10.80;99.90
37285;DHT22;23172;53.550;9.964;2024-03-02T08:44:30;10.80;99.90
37285;DHT22;23172;53.550;9.964;2024-03-02T08:49:32;10.90;99.90
37285;DHT22;23172;53.550;9.964;2024-03-02T08:54:33;11.10;99.90
37285;DHT22;23172;53.550;9.964;2024-03-02T08:59:39;11.30;99.90
37285;DHT22;23172;53.550;9.964;2024-03-02T09:04:41;11.50;99.90
37285;DHT22;23172;53.550;9.964;2024-03-02T09:09:42;11.60;99.90
37285;DHT22;23172;53.550;9.964;2024-03-02T09:14:46;11.80;99.90
37285;DHT22;23172;53.550;9.964;2024-03-02T09:19:48;12.00;99.80
37285;DHT22;23172;53.550;9.964;2024-03-02T09:24:53;12.00;99.50
37285;DHT22;23172;53.550;9.964;2024-03-02T09:29:56;12.10;99.20
37285;DHT22;23172;53.550;9.964;2024-03-02T09:34:58;12.20;98.90
37285;DHT22;23172;53.550;9.964;2024-03-02T09:40:01;12.30;98.70
37285;DHT22;23172;53.550;9.964;2024-03-02T09:45:05;12.40;98.50
37285;DHT22;23172;53.550;9.964;2024-03-02T09:50:08;12.50;98.00
37285;DHT22;23172;53.550;9.964;2024-03-02T09:55:11;12.50;97.60
37285;DHT22;23172;53.550;9.964;2024-03-02T10:00:16;12.50;97.30
37285;DHT22;23172;53.550;9.964;2024-03-02T10:05:24;12.60;96.90
37285;DHT22;23172;53.550;9.964;2024-03-02T10:10:34;12.60;96.70
37285;DHT22;23172;53.550;9.964;2024-03-02T10:15:39;12.70;96.30
37285;DHT22;23172;53.550;9.964;2024-03-02T10:20:42;12.90;96.10
37285;DHT22;23172;53.550;9.964;2024-03-02T10:25:44;12.90;95.70
37285;DHT22;23172;53.550;9.964;2024-03-02T10:30:48;13.10;95.10
37285;DHT22;23172;53.550;9.964;2024-03-02T10:35:52;13.20;94.40
37285;DHT22;23172;53.550;9.964;2024-03-02T10:40:55;13.40;93.80
37285;DHT22;23172;53.550;9.964;2024-03-02T10:46:00;13.50;93.10
37285;DHT22;23172;53.550;9.964;2024-03-02T10:51:03;13.70;92.70
37285;DHT22;23172;53.550;9.964;2024-03-02T10:56:07;13.90;91.80
37285;DHT22;23172;53.550;9.964;2024-03-02T11:01:13;14.00;90.40
37285;DHT22;23172;53.550;9.964;2024-03-02T11:06:15;14.20;90.00
37285;DHT22;23172;53.550;9.964;2024-03-02T11:11:22;14.40;88.90
37285;DHT22;23172;53.550;9.964;2024-03-02T11:16:33;14.50;87.30
37285;DHT22;23172;53.550;9.964;2024-03-02T11:21:36;14.60;84.50
37285;DHT22;23172;53.550;9.964;2024-03-02T11:26:38;14.60;83.70
37285;DHT22;23172;53.550;9.964;2024-03-02T11:32:01;14.70;82.70
37285;DHT22;23172;53.550;9.964;2024-03-02T11:37:03;14.80;81.20
37285;DHT22;23172;53.550;9.964;2024-03-02T11:42:06;14.80;80.50
37285;DHT22;23172;53.550;9.964;2024-03-02T11:47:12;14.70;79.40
37285;DHT22;23172;53.550;9.964;2024-03-02T11:52:18;14.70;79.20
37285;DHT22;23172;53.550;9.964;2024-03-02T11:57:21;14.80;78.40
37285;DHT22;23172;53.550;9.964;2024-03-02T12:02:24;14.70;77.60
37285;DHT22;23172;53.550;9.964;2024-03-02T12:07:26;14.70;77.30
37285;DHT22;23172;53.550;9.964;2024-03-02T12:12:28;14.80;76.90
37285;DHT22;23172;53.550;9.964;2024-03-02T12:17:31;14.70;76.00
37285;DHT22;23172;53.550;9.964;2024-03-02T12:22:33;14.70;76.10
37285;DHT22;23172;53.550;9.964;2024-03-02T12:27:35;14.80;75.60
37285;DHT22;23172;53.550;9.964;2024-03-02T12:32:39;14.80;75.10
37285;DHT22;23172;53.550;9.964;2024-03-02T12:37:45;14.80;74.70
37285;DHT22;23172;53.550;9.964;2024-03-02T12:42:47;14.90;74.00
37285;DHT22;23172;53.550;9.964;2024-03-02T12:47:50;14.90;73.70
37285;DHT22;23172;53.550;9.964;2024-03-02T12:52:53;14.90;73.20
37285;DHT22;23172;53.550;9.964;2024-03-02T12:57:55;14.90;73.10
37285;DHT22;23172;53.550;9.964;2024-03-02T13:02:59;14.90;72.40
37285;DHT22;23172;53.550;9.964;2024-03-02T13:08:03;15.00;72.40
37285;DHT22;23172;53.550;9.964;2024-03-02T13:13:06;15.00;72.10
37285;DHT22;23172;53.550;9.964;2024-03-02T13:18:09;15.00;72.00
37285;DHT22;23172;53.550;9.964;2024-03-02T13:23:11;15.00;71.80
37285;DHT22;23172;53.550;9.964;2024-03-02T13:28:13;15.00;71.80
37285;DHT22;23172;53.550;9.964;2024-03-02T13:33:16;15.00;71.70
37285;DHT22;23172;53.550;9.964;2024-03-02T13:38:22;14.90;71.60
37285;DHT22;23172;53.550;9.964;2024-03-02T13:43:24;15.00;72.50
37285;DHT22;23172;53.550;9.964;2024-03-02T13:48:28;15.10;71.50
37285;DHT22;23172;53.550;9.964;2024-03-02T13:53:31;15.10;71.50
37285;DHT22;23172;53.550;9.964;2024-03-02T13:58:33;15.20;71.40
37285;DHT22;23172;53.550;9.964;2024-03-02T14:03:37;15.20;71.20
37285;DHT22;23172;53.550;9.964;2024-03-02T14:08:38;15.20;71.20
37285;DHT22;23172;53.550;9.964;2024-03-02T14:13:41;15.20;71.20
37285;DHT22;23172;53.550;9.964;2024-03-02T14:18:46;15.20;71.00
37285;DHT22;23172;53.550;9.964;2024-03-02T14:23:48;15.20;70.80
37285;DHT22;23172;53.550;9.964;2024-03-02T14:28:50;15.20;71.10
37285;DHT22;23172;53.550;9.964;2024-03-02T14:33:54;15.20;71.40
37285;DHT22;23172;53.550;9.964;2024-03-02T14:38:56;15.00;71.50
37285;DHT22;23172;53.550;9.964;2024-03-02T14:43:58;14.90;71.80
37285;DHT22;23172;53.550;9.964;2024-03-02T14:49:01;14.90;72.00
37285;DHT22;23172;53.550;9.964;2024-03-02T14:54:03;14.70;72.20
37285;DHT22;23172;53.550;9.964;2024-03-02T14:59:05;14.70;72.30
37285;DHT22;23172;53.550;9.964;2024-03-02T15:04:08;14.50;72.40
37285;DHT22;23172;53.550;9.964;2024-03-02T15:09:10;14.50;72.20
37285;DHT22;23172;53.550;9.964;2024-03-02T15:14:12;14.40;72.40
37285;DHT22;23172;53.550;9.964;2024-03-02T15:19:16;14.40;72.60
37285;DHT22;23172;53.550;9.964;2024-03-02T15:24:17;14.30;72.80
37285;DHT22;23172;53.550;9.964;2024-03-02T15:29:19;14.30;73.10
37285;DHT22;23172;53.550;9.964;2024-03-02T15:34:26;14.30;73.60
37285;DHT22;23172;53.550;9.964;2024-03-02T15:39:28;14.20;74.00
37285;DHT22;23172;53.550;9.964;2024-03-02T15:44:30;14.20;74.60
37285;DHT22;23172;53.550;9.964;2024-03-02T15:49:33;14.20;75.30
37285;DHT22;23172;53.550;9.964;2024-03-02T15:54:35;14.10;75.80
37285;DHT22;23172;53.550;9.964;2024-03-02T15:59:37;14.10;76.10
37285;DHT22;23172;53.550;9.964;2024-03-02T16:04:40;14.00;76.60
37285;DHT22;23172;53.550;9.964;2024-03-02T16:09:42;14.00;77.20
37285;DHT22;23172;53.550;9.964;2024-03-02T16:14:44;13.90;77.40
37285;DHT22;23172;53.550;9.964;2024-03-02T16:19:48;13.90;77.70
37285;DHT22;23172;53.550;9.964;2024-03-02T16:24:50;13.80;78.10
37285;DHT22;23172;53.550;9.964;2024-03-02T16:29:52;13.80;78.30
37285;DHT22;23172;53.550;9.964;2024-03-02T16:34:56;13.80;78.80
37285;DHT22;23172;53.550;9.964;2024-03-02T16:39:58;13.70;79.00
37285;DHT22;23172;53.550;9.964;2024-03-02T16:45:00;13.70;79.30
37285;DHT22;23172;53.550;9.964;2024-03-02T16:50:04;13.60;79.40
37285;DHT22;23172;53.550;9.964;2024-03-02T16:55:09;13.60;79.70
37285;DHT22;23172;53.550;9.964;2024-03-02T17:00:12;13.60;79.80
37285;DHT22;23172;53.550;9.964;2024-03-02T17:05:15;13.60;80.00
37285;DHT22;23172;53.550;9.964;2024-03-02T17:10:23;13.50;80.10
37285;DHT22;23172;53.550;9.964;2024-03-02T17:15:25;13.40;80.40
37285;DHT22;23172;53.550;9.964;2024-03-02T17:20:29;13.40;80.70
37285;DHT22;23172;53.550;9.964;2024-03-02T17:25:31;13.30;80.90
37285;DHT22;23172;53.550;9.964;2024-03-02T17:30:33;13.30;81.20
37285;DHT22;23172;53.550;9.964;2024-03-02T17:35:36;13.20;81.20
37285;DHT22;23172;53.550;9.964;2024-03-02T17:40:38;13.20;81.20
37285;DHT22;23172;53.550;9.964;2024-03-02T17:45:40;13.20;81.20
37285;DHT22;23172;53.550;9.964;2024-03-02T17:50:44;13.10;81.20
37285;DHT22;23172;53.550;9.964;2024-03-02T17:55:46;13.10;81.20
37285;DHT22;23172;53.550;9.964;2024-03-02T18:00:47;13.10;81.30
37285;DHT22;23172;53.550;9.964;2024-03-02T18:05:51;13.00;81.20
37285;DHT22;23172;53.550;9.964;2024-03-02T18:10:53;13.00;81.40
37285;DHT22;23172;53.550;9.964;2024-03-02T18:15:55;13.00;81.50
37285;DHT22;23172;53.550;9.964;2024-03-02T18:20:59;13.00;81.80
37285;DHT22;23172;53.550;9.964;2024-03-02T18:26:01;13.00;82.20
37285;DHT22;23172;53.550;9.964;2024-03-02T18:31:03;12.90;82.90
37285;DHT22;23172;53.550;9.964;2024-03-02T18:36:08;12.90;83.60
37285;DHT22;23172;53.550;9.964;2024-03-02T18:41:10;12.90;84.30
37285;DHT22;23172;53.550;9.964;2024-03-02T18:46:12;12.90;85.00
37285;DHT22;23172;53.550;9.964;2024-03-02T18:51:15;12.90;85.70
37285;DHT22;23172;53.550;9.964;2024-03-02T18:56:17;12.90;86.60
37285;DHT22;23172;53.550;9.964;2024-03-02T19:01:19;12.80;87.30
37285;DHT22;23172;53.550;9.964;2024-03-02T19:06:22;12.80;87.80
37285;DHT22;23172;53.550;9.964;2024-03-02T19:11:24;12.80;88.80
37285;DHT22;23172;53.550;9.964;2024-03-02T19:16:29;12.70;89.70
37285;DHT22;23172;53.550;9.964;2024-03-02T19:21:32;12.70;90.20
37285;DHT22;23172;53.550;9.964;2024-03-02T19:26:34;12.70;90.40
37285;DHT22;23172;53.550;9.964;2024-03-02T19:31:36;12.60;90.80
37285;DHT22;23172;53.550;9.964;2024-03-02T19:36:39;12.60;91.10
37285;DHT22;23172;53.550;9.964;2024-03-02T19:41:41;12.60;91.70
37285;DHT22;23172;53.550;9.964;2024-03-02T19:46:43;12.50;92.00
37285;DHT22;23172;53.550;9.964;2024-03-02T19:51:47;12.50;92.90
37285;DHT22;23172;53.550;9.964;2024-03-02T19:56:48;12.40;93.20
37285;DHT22;23172;53.550;9.964;2024-03-02T20:01:52;12.40;93.50
37285;DHT22;23172;53.550;9.964;2024-03-02T20:06:55;12.30;94.00
37285;DHT22;23172;53.550;9.964;2024-03-02T20:11:57;12.30;94.40
37285;DHT22;23172;53.550;9.964;2024-03-02T20:17:00;12.30;94.80
37285;DHT22;23172;53.550;9.964;2024-03-02T20:22:03;12.20;95.00
37285;DHT22;23172;53.550;9.964;2024-03-02T20:27:05;12.10;95.50
37285;DHT22;23172;53.550;9.964;2024-03-02T20:32:07;12.10;95.70
37285;DHT22;23172;53.550;9.964;2024-03-02T20:37:10;12.10;96.00
37285;DHT22;23172;53.550;9.964;2024-03-02T20:42:12;12.00;96.40
37285;DHT22;23172;53.550;9.964;2024-03-02T20:47:14;12.00;96.50
37285;DHT22;23172;53.550;9.964;2024-03-02T20:52:18;12.00;96.80
37285;DHT22;23172;53.550;9.964;2024-03-02T20:57:20;11.90;97.10
37285;DHT22;23172;53.550;9.964;2024-03-02T21:02:22;11.90;97.40
37285;DHT22;23172;53.550;9.964;2024-03-02T21:07:25;11.90;97.70
37285;DHT22;23172;53.550;9.964;2024-03-02T21:12:27;11.80;97.90
37285;DHT22;23172;53.550;9.964;2024-03-02T21:17:29;11.80;98.40
37285;DHT22;23172;53.550;9.964;2024-03-02T21:22:32;11.80;98.20
37285;DHT22;23172;53.550;9.964;2024-03-02T21:27:35;11.80;98.40
37285;DHT22;23172;53.550;9.964;2024-03-02T21:32:36;11.80;98.40
37285;DHT22;23172;53.550;9.964;2024-03-02T21:37:40;11.70;98.60
37285;DHT22;23172;53.550;9.964;2024-03-02T21:42:43;11.70;98.70
37285;DHT22;23172;53.550;9.964;2024-03-02T21:47:45;11.70;98.80
37285;DHT22;23172;53.550;9.964;2024-03-02T21:52:49;11.70;99.00
37285;DHT22;23172;53.550;9.964;2024-03-02T21:57:53;11.70;99.00
37285;DHT22;23172;53.550;9.964;2024-03-02T22:02:55;11.70;99.00
37285;DHT22;23172;53.550;9.964;2024-03-02T22:07:59;11.60;99.10
37285;DHT22;23172;53.550;9.964;2024-03-02T22:13:00;11.50;99.20
37285;DHT22;23172;53.550;9.964;2024-03-02T22:18:02;11.60;99.30
37285;DHT22;23172;53.550;9.964;2024-03-02T22:23:06;11.60;99.30
37285;DHT22;23172;53.550;9.964;2024-03-02T22:28:07;11.60;99.20
37285;DHT22;23172;53.550;9.964;2024-03-02T22:33:09;11.60;99.30
37285;DHT22;23172;53.550;9.964;2024-03-02T22:38:12;11.60;99.30
37285;DHT22;23172;53.550;9.964;2024-03-02T22:43:16;11.70;99.40
37285;DHT22;23172;53.550;9.964;2024-03-02T22:48:18;11.70;99.30
37285;DHT22;23172;53.550;9.964;2024-03-02T22:53:21;11.60;99.30
37285;DHT22;23172;53.550;9.964;2024-03-02T22:58:23;11.60;99.30
37285;DHT22;23172;53.550;9.964;2024-03-02T23:03:26;11.60;99.30
37285;DHT22;23172;53.550;9.964;2024-03-02T23:08:29;11.60;99.30
37285;DHT22;23172;53.550;9.964;2024-03-02T23:13:31;11.50;99.30
37285;DHT22;23172;53.550;9.964;2024-03-02T23:18:33;11.50;99.40
37285;DHT22;23172;53.550;9.964;2024-03-02T23:23:36;11.50;99.60
37285;DHT22;23172;53.550;9.964;2024-03-02T23:28:38;11.50;99.40
37285;DHT22;23172;53.550;9.964;2024-03-02T23:33:40;11.50;99.40
37285;DHT22;23172;53.550;9.964;2024-03-02T23:38:43;11.50;99.40
37285;DHT22;23172;53.550;9.964;2024-03-02T23:43:45;11.50;99.40
37285;DHT22;23172;53.550;9.964;2024-03-02T23:48:47;11.50;99.40
37285;DHT22;23172;53.550;9.964;2024-03-02T23:53:50;11.50;99.40
37285;DHT22;23172;53.550;9.964;2024-03-02T23:58:52;11.50;99.50
